Time;durP1;ratioP1;P1;durP2;ratioP2;P2;SDS_P1;SDS_P2;PMS_P1;PMS_P2;Temp;Humidity;BMP_temperature;BMP_pressure;BME280_temperature;BME280_humidity;BME280_pressure;Samples;Min_cycle;Max_cycle;Signal;HPM_P1;HPM_P2
2021/10/04 00:00:51;;;;;;;18.58;9.30;;;;;;;13.66;51.57;100549.47;5049916;28;20017;-50
2021/10/04 00:03:16;;;;;;;19.63;9.10;;;;;;;13.66;51.57;100546.81;5049949;28;20027;-47
2021/10/04 00:05:42;;;;;;;17.90;8.48;;;;;;;13.60;51.97;100542.28;5049984;28;20083;-51
2021/10/04 00:08:07;;;;;;;17.40;8.73;;;;;;;13.38;51.42;100483.59;5049995;28;20485;-51
2021/10/04 00:10:33;;;;;;;13.70;8.70;;;;;;;13.74;51.48;100540.44;5050115;28;20036;-49
2021/10/04 00:12:58;;;;;;;14.55;9.10;;;;;;;13.86;51.33;100541.47;5050164;28;20033;-51
2021/10/04 00:15:25;;;;;;;16.02;8.95;;;;;;;13.78;51.68;100538.97;5050042;28;20020;-48
2021/10/04 00:17:50;;;;;;;13.68;8.73;;;;;;;13.82;51.04;100541.06;5048299;28;20452;-47
2021/10/04 00:20:16;;;;;;;16.25;9.55;;;;;;;13.81;50.98;100538.59;5049787;28;20029;-48
2021/10/04 00:22:41;;;;;;;17.50;8.80;;;;;;;13.73;50.87;100542.28;5049843;28;20366;-49
2021/10/04 00:25:08;;;;;;;14.55;9.15;;;;;;;13.76;50.96;100539.19;5049544;28;20104;-48
2021/10/04 00:27:34;;;;;;;14.40;8.85;;;;;;;13.81;50.34;100542.06;5048594;28;20082;-47
2021/10/04 00:30:05;;;;;;;14.27;8.88;;;;;;;13.83;50.34;100541.88;5048947;28;20041;-49
2021/10/04 00:32:35;;;;;;;13.98;8.55;;;;;;;13.86;50.58;100546.84;5049305;28;20098;-50
2021/10/04 00:35:00;;;;;;;;;;;;;;;13.93;50.39;100544.97;5049377;28;20455;-50
2021/10/04 00:37:26;;;;;;;12.48;8.48;;;;;;;13.85;50.91;100548.66;5048984;28;19909;-47
2021/10/04 00:39:51;;;;;;;13.20;8.48;;;;;;;13.72;51.19;100555.84;5049417;28;20029;-50
2021/10/04 00:42:17;;;;;;;13.60;7.80;;;;;;;13.78;51.03;100544.34;5049227;28;20078;-48
2021/10/04 00:44:42;;;;;;;18.05;8.68;;;;;;;13.92;50.27;100553.19;5049293;28;20029;-49
2021/10/04 00:47:08;;;;;;;16.17;8.93;;;;;;;13.86;50.65;100555.66;5049195;28;20366;-50
2021/10/04 00:49:33;;;;;;;13.43;8.60;;;;;;;13.81;50.71;100555.44;5049084;28;20085;-48
2021/10/04 00:51:59;;;;;;;16.70;8.07;;;;;;;13.61;52.01;100555.44;5049593;28;20020;-49
2021/10/04 00:54:24;;;;;;;12.82;7.75;;;;;;;13.42;52.07;100561.56;5048994;28;20037;-50
2021/10/04 00:56:49;;;;;;;13.65;8.32;;;;;;;13.19;52.93;100552.00;5049117;28;20476;-47
2021/10/04 00:59:15;;;;;;;13.05;8.18;;;;;;;13.03;52.84;100557.72;5049344;28;20017;-47
2021/10/04 01:01:41;;;;;;;12.20;7.53;;;;;;;13.03;53.01;100547.84;5047901;28;20342;-49
2021/10/04 01:04:06;;;;;;;15.15;7.80;;;;;;;13.06;53.15;100554.63;5047913;28;20024;-49
2021/10/04 01:06:32;;;;;;;14.48;7.38;;;;;;;13.20;52.53;100558.19;5066829;28;20101;-47
2021/10/04 01:08:57;;;;;;;12.82;7.18;;;;;;;13.12;52.66;100553.84;5069392;28;20035;-48
2021/10/04 01:11:23;;;;;;;13.15;7.20;;;;;;;13.24;52.60;100551.41;5069476;28;20032;-49
2021/10/04 01:13:49;;;;;;;13.18;6.88;;;;;;;13.31;52.81;100549.63;5069428;28;20229;-48
2021/10/04 01:16:15;;;;;;;10.98;6.68;;;;;;;13.32;51.80;100553.13;5069411;28;20457;-48
2021/10/04 01:18:41;;;;;;;12.05;6.40;;;;;;;13.24;52.22;100549.56;5069243;28;20066;-48
2021/10/04 01:21:06;;;;;;;10.38;6.72;;;;;;;13.39;51.98;100552.09;5069072;28;20082;-49
2021/10/04 01:23:32;;;;;;;10.02;6.85;;;;;;;13.34;52.21;100551.06;5069228;28;20021;-47
2021/10/04 01:25:57;;;;;;;10.77;6.72;;;;;;;13.35;52.30;100550.88;5068869;28;20027;-48
2021/10/04 01:28:23;;;;;;;11.73;7.38;;;;;;;13.37;51.87;100551.47;5055657;28;20103;-48
2021/10/04 01:30:48;;;;;;;13.88;7.40;;;;;;;13.40;51.77;100544.91;5049402;28;20049;-48
2021/10/04 01:33:14;;;;;;;16.00;8.02;;;;;;;13.51;51.29;100538.97;5049866;28;20017;-48
2021/10/04 01:35:39;;;;;;;12.15;8.20;;;;;;;13.57;51.63;100540.00;5049676;28;20023;-47
2021/10/04 01:38:05;;;;;;;15.88;8.63;;;;;;;13.43;51.62;100547.19;5049848;28;20388;-47
2021/10/04 01:40:30;;;;;;;12.52;7.95;;;;;;;13.46;51.34;100536.91;5049840;28;20040;-47
2021/10/04 01:42:56;;;;;;;13.15;7.85;;;;;;;13.45;51.29;100540.59;5050062;28;20027;-50
2021/10/04 01:45:23;;;;;;;15.68;9.38;;;;;;;13.44;51.84;100540.78;5052786;28;20346;-47
2021/10/04 01:47:49;;;;;;;16.88;8.75;;;;;;;13.40;51.52;100547.56;5052727;28;20028;-47
2021/10/04 01:50:15;;;;;;;13.75;8.63;;;;;;;13.36;52.08;100546.34;5052534;28;20100;-49
2021/10/04 01:52:41;;;;;;;15.07;9.05;;;;;;;13.27;51.83;100545.69;5052913;28;20032;-50
2021/10/04 01:55:07;;;;;;;15.63;8.98;;;;;;;13.20;52.07;100540.31;5053069;28;20373;-50
2021/10/04 01:57:32;;;;;;;16.35;9.80;;;;;;;13.17;52.11;100542.53;5051882;28;20491;-49
2021/10/04 02:00:01;;;;;;;18.00;10.43;;;;;;;13.09;52.36;100540.88;5051451;28;20017;-49
2021/10/04 02:02:30;;;;;;;21.10;10.57;;;;;;;13.22;52.56;100548.94;5052701;28;20476;-48
2021/10/04 02:04:56;;;;;;;17.75;9.98;;;;;;;13.25;52.27;100540.53;5052447;28;20472;-47
2021/10/04 02:07:21;;;;;;;16.25;10.38;;;;;;;13.25;52.54;100540.53;5052642;28;20054;-51
2021/10/04 02:09:47;;;;;;;21.02;10.43;;;;;;;13.20;52.64;100542.97;5052484;28;20049;-47
2021/10/04 02:12:15;;;;;;;15.75;10.23;;;;;;;13.15;52.67;100550.75;5052557;28;20013;-47
2021/10/04 02:14:41;;;;;;;16.67;9.75;;;;;;;13.27;52.25;100546.50;5052528;28;20017;-50
2021/10/04 02:17:06;;;;;;;16.05;10.02;;;;;;;13.26;52.07;100544.03;5052544;28;20041;-49
2021/10/04 02:19:32;;;;;;;18.70;10.23;;;;;;;13.02;52.89;100545.38;5052067;28;20040;-49
2021/10/04 02:22:00;;;;;;;14.85;9.73;;;;;;;12.86;52.80;100547.38;5049622;28;20059;-47
2021/10/04 02:24:27;;;;;;;15.93;9.93;;;;;;;12.80;52.93;100552.69;5052085;28;20021;-47
2021/10/04 02:26:52;;;;;;;13.10;8.95;;;;;;;12.78;53.32;100554.75;5052291;28;20532;-47
2021/10/04 02:29:18;;;;;;;14.10;9.43;;;;;;;12.97;52.19;100553.19;5052085;28;20051;-47
2021/10/04 02:31:43;;;;;;;15.35;9.00;;;;;;;12.91;53.09;100554.81;5052352;28;20039;-48
2021/10/04 02:34:09;;;;;;;14.48;8.70;;;;;;;12.99;52.67;100556.47;5052195;28;20020;-46
2021/10/04 02:36:34;;;;;;;20.17;8.90;;;;;;;12.95;52.84;100547.22;5052565;28;20028;-46
2021/10/04 02:39:00;;;;;;;14.80;9.13;;;;;;;13.05;52.73;100553.00;5052188;28;20496;-46
2021/10/04 02:41:25;;;;;;;14.80;9.30;;;;;;;13.07;52.05;100558.97;5052286;28;20029;-46
2021/10/04 02:43:50;;;;;;;14.05;8.55;;;;;;;12.88;52.66;100557.84;5052180;28;20477;-47
2021/10/04 02:46:16;;;;;;;13.50;8.88;;;;;;;12.80;52.83;100561.53;5052379;28;20412;-49
2021/10/04 02:48:42;;;;;;;15.27;8.88;;;;;;;12.93;52.97;100567.94;5052179;28;20498;-48
2021/10/04 02:51:07;;;;;;;12.93;8.68;;;;;;;12.80;52.86;100566.88;5052002;28;20469;-48
2021/10/04 02:53:32;;;;;;;13.50;8.40;;;;;;;12.85;53.09;100569.78;5052175;28;20124;-48
2021/10/04 02:55:58;;;;;;;13.65;8.95;;;;;;;12.91;51.94;100571.66;5051819;28;20028;-47
2021/10/04 02:58:23;;;;;;;16.80;9.23;;;;;;;12.85;52.56;100575.13;5051572;28;20025;-47
2021/10/04 03:00:49;;;;;;;19.48;9.43;;;;;;;12.84;52.33;100581.47;5051672;28;20025;-46
2021/10/04 03:03:14;;;;;;;15.18;9.60;;;;;;;12.79;52.90;100573.22;5051814;28;20346;-49
2021/10/04 03:05:40;;;;;;;21.92;10.32;;;;;;;12.88;52.44;100577.38;5051510;28;20021;-47
2021/10/04 03:08:05;;;;;;;16.95;10.35;;;;;;;12.73;52.75;100578.53;5050413;28;20131;-47
2021/10/04 03:10:32;;;;;;;16.40;10.02;;;;;;;12.51;53.80;100570.63;5051314;28;20020;-47
2021/10/04 03:12:58;;;;;;;30.00;16.50;;;;;;;12.50;54.29;100568.94;5049973;28;20028;-47
2021/10/04 03:15:24;;;;;;;27.70;15.95;;;;;;;12.60;53.24;100576.59;5051275;28;20108;-49
2021/10/04 03:17:49;;;;;;;31.95;19.52;;;;;;;12.49;53.52;100573.47;5048570;28;20098;-47
2021/10/04 03:20:14;;;;;;;65.93;34.25;;;;;;;12.58;53.57;100586.66;5050761;28;20041;-48
2021/10/04 03:22:41;;;;;;;24.08;13.90;;;;;;;12.74;53.28;100581.00;5050436;28;20021;-49
2021/10/04 03:25:07;;;;;;;19.38;10.07;;;;;;;12.49;53.99;100575.31;5050835;28;20028;-47
2021/10/04 03:27:32;;;;;;;16.63;9.45;;;;;;;12.58;53.34;100584.00;5050929;28;20448;-48
2021/10/04 03:29:58;;;;;;;16.17;9.52;;;;;;;12.57;53.73;100579.69;5046699;28;20060;-48
2021/10/04 03:32:23;;;;;;;16.58;9.02;;;;;;;12.24;54.29;100580.25;5050532;28;20480;-48
2021/10/04 03:34:49;;;;;;;16.67;9.20;;;;;;;12.03;55.08;100587.31;5051173;28;20032;-48
2021/10/04 03:37:15;;;;;;;17.80;9.73;;;;;;;12.17;53.93;100577.56;5049582;28;20107;-47
2021/10/04 03:39:41;;;;;;;15.65;8.95;;;;;;;11.99;54.95;100580.69;5050521;28;20107;-47
2021/10/04 03:42:06;;;;;;;17.92;9.05;;;;;;;12.05;54.56;100577.25;5049592;28;20028;-48
2021/10/04 03:44:32;;;;;;;16.17;9.50;;;;;;;12.04;54.28;100580.94;5051033;28;20029;-47
2021/10/04 03:46:57;;;;;;;16.88;9.25;;;;;;;12.12;54.39;100574.63;5051130;28;20420;-48
2021/10/04 03:49:23;;;;;;;16.42;9.05;;;;;;;12.20;54.53;100574.47;5050469;28;20028;-47
2021/10/04 03:51:48;;;;;;;17.95;9.43;;;;;;;12.15;54.60;100581.41;5050912;28;20024;-50
2021/10/04 03:54:14;;;;;;;17.55;8.75;;;;;;;12.30;53.69;100582.19;5050711;28;20029;-48
2021/10/04 03:56:39;;;;;;;14.00;8.77;;;;;;;12.19;53.57;100580.03;5049163;28;20481;-49
2021/10/04 03:59:04;;;;;;;14.73;9.23;;;;;;;11.90;54.63;100581.84;5050382;28;20024;-47
2021/10/04 04:01:30;;;;;;;14.45;8.68;;;;;;;12.00;54.49;100579.69;5050582;28;20029;-50
2021/10/04 04:03:56;;;;;;;15.60;9.27;;;;;;;11.91;54.14;100588.81;5050356;28;20036;-49
2021/10/04 04:06:21;;;;;;;18.10;10.48;;;;;;;12.22;55.02;100583.16;5050314;28;20021;-48
2021/10/04 04:08:47;;;;;;;20.25;9.65;;;;;;;12.07;54.21;100590.38;5050383;28;20028;-48
2021/10/04 04:11:13;;;;;;;17.65;9.43;;;;;;;12.03;54.69;100589.13;5050712;28;20021;-50
2021/10/04 04:13:38;;;;;;;18.65;9.48;;;;;;;11.94;54.94;100599.13;5049668;28;20366;-51
2021/10/04 04:16:05;;;;;;;18.23;8.98;;;;;;;11.98;54.89;100597.72;5050569;28;20486;-51
2021/10/04 04:18:31;;;;;;;15.27;9.18;;;;;;;11.89;54.41;100599.69;5050111;28;20028;-49
2021/10/04 04:20:56;;;;;;;17.50;8.95;;;;;;;11.97;54.68;100604.06;5050280;28;20040;-49
2021/10/04 04:23:22;;;;;;;19.05;10.07;;;;;;;11.91;55.07;100591.50;5049297;28;20041;-48
2021/10/04 04:25:47;;;;;;;323.55;161.90;;;;;;;12.00;54.98;100608.19;5050664;28;20025;-47
2021/10/04 04:28:13;;;;;;;62.20;29.85;;;;;;;12.20;54.24;100603.84;5050580;28;20028;-46
2021/10/04 04:30:38;;;;;;;35.30;17.42;;;;;;;11.94;57.73;100607.13;5049526;28;20439;-49
2021/10/04 04:33:03;;;;;;;24.98;10.98;;;;;;;12.04;55.61;100607.63;5043573;28;20037;-49
2021/10/04 04:35:29;;;;;;;15.80;8.52;;;;;;;12.31;54.55;100613.16;5048064;28;20029;-48
2021/10/04 04:37:54;;;;;;;17.27;8.93;;;;;;;12.19;54.67;100614.72;5030099;28;20087;-49
2021/10/04 04:40:20;;;;;;;16.38;7.82;;;;;;;12.30;54.22;100619.53;5030296;28;20026;-51
2021/10/04 04:42:45;;;;;;;14.57;8.25;;;;;;;12.43;53.56;100618.78;5028890;28;20025;-48
2021/10/04 04:45:12;;;;;;;16.08;8.10;;;;;;;12.67;53.55;100621.03;5027174;28;20021;-48
2021/10/04 04:47:38;;;;;;;14.93;7.85;;;;;;;12.61;53.25;100580.94;5028494;28;20025;-48
2021/10/04 04:50:04;;;;;;;12.80;7.18;;;;;;;13.06;52.46;100624.94;5027976;28;20026;-50
2021/10/04 04:52:29;;;;;;;18.67;9.50;;;;;;;13.22;52.63;100620.28;5027783;28;20502;-48
2021/10/04 04:54:55;;;;;;;18.02;7.78;;;;;;;13.72;50.70;100617.38;5026346;28;20029;-48
2021/10/04 04:57:20;;;;;;;12.63;6.82;;;;;;;13.88;50.26;100608.97;5027393;28;20053;-48
2021/10/04 04:59:46;;;;;;;17.08;7.90;;;;;;;14.14;49.14;100616.19;5027409;28;20520;-50
2021/10/04 05:02:11;;;;;;;14.10;9.00;;;;;;;14.43;49.46;100616.78;5026045;28;20025;-49
2021/10/04 05:04:37;;;;;;;17.25;8.60;;;;;;;14.68;49.68;100616.16;5028004;28;20029;-50
2021/10/04 05:07:03;;;;;;;13.85;7.40;;;;;;;14.98;47.31;100614.66;5046089;28;20029;-51
2021/10/04 05:09:28;;;;;;;19.75;9.93;;;;;;;15.28;47.01;100624.84;5047209;28;20520;-48
2021/10/04 05:11:53;;;;;;;25.25;17.55;;;;;;;15.48;46.07;100611.34;5046252;28;20013;-50
2021/10/04 05:14:19;;;;;;;22.85;9.70;;;;;;;15.74;46.20;100618.44;5047490;28;20090;-49
2021/10/04 05:16:46;;;;;;;25.92;14.15;;;;;;;16.01;44.89;100616.41;5049226;28;20032;-48
2021/10/04 05:19:12;;;;;;;12.95;7.93;;;;;;;16.36;44.49;100620.47;5050445;28;20032;-48
2021/10/04 05:21:38;;;;;;;15.18;7.25;;;;;;;16.72;43.28;100622.41;5052767;28;20040;-51
2021/10/04 05:24:03;;;;;;;15.70;6.95;;;;;;;17.10;41.97;100629.47;5052317;28;20013;-48
2021/10/04 05:26:29;;;;;;;11.65;6.68;;;;;;;17.38;41.60;100628.06;5052359;28;20025;-49
2021/10/04 05:28:54;;;;;;;11.73;6.65;;;;;;;17.73;41.49;100630.91;5052679;28;20029;-48
2021/10/04 05:31:20;;;;;;;11.48;6.47;;;;;;;17.95;40.73;100622.31;5052081;28;20053;-51
2021/10/04 05:33:45;;;;;;;11.10;6.47;;;;;;;18.39;39.72;100624.72;5050801;28;20044;-49
2021/10/04 05:36:11;;;;;;;10.43;6.70;;;;;;;18.63;38.65;100623.69;5052851;28;20040;-49
2021/10/04 05:38:36;;;;;;;10.93;6.88;;;;;;;19.02;38.04;100623.19;5053113;28;20035;-51
2021/10/04 05:41:02;;;;;;;13.48;9.07;;;;;;;19.32;36.98;100614.88;5053251;28;20517;-51
2021/10/04 05:43:27;;;;;;;12.55;8.02;;;;;;;19.62;36.69;100628.13;5052919;28;20419;-49
2021/10/04 05:45:53;;;;;;;15.90;7.15;;;;;;;19.85;35.95;100621.81;5052822;28;20032;-50
2021/10/04 05:48:18;;;;;;;15.07;9.30;;;;;;;20.19;35.33;100624.56;5052621;28;20496;-50
2021/10/04 05:50:44;;;;;;;15.82;8.15;;;;;;;20.18;35.36;100628.34;5051929;28;20044;-51
2021/10/04 05:53:09;;;;;;;17.52;7.20;;;;;;;20.22;35.53;100624.06;5052450;28;20032;-49
2021/10/04 05:55:35;;;;;;;17.17;6.90;;;;;;;20.82;34.55;100619.00;5052077;28;20480;-50
2021/10/04 05:58:00;;;;;;;19.98;6.65;;;;;;;20.83;33.15;100624.19;5052581;28;20017;-51
2021/10/04 06:00:26;;;;;;;12.23;6.35;;;;;;;20.75;34.14;100615.66;5052395;28;20508;-51
2021/10/04 06:02:51;;;;;;;10.98;6.15;;;;;;;21.18;33.41;100619.47;5052300;28;20508;-51
2021/10/04 06:05:17;;;;;;;10.88;6.10;;;;;;;21.47;32.34;100633.63;5052180;28;20044;-47
2021/10/04 06:07:42;;;;;;;10.38;5.97;;;;;;;21.67;32.14;100635.75;5052484;28;20040;-46
2021/10/04 06:10:10;;;;;;;7.53;5.30;;;;;;;22.14;31.56;100631.53;5052460;28;20013;-47
2021/10/04 06:12:37;;;;;;;9.85;5.53;;;;;;;22.54;30.83;100641.91;5052487;28;20029;-48
2021/10/04 06:15:02;;;;;;;8.20;5.40;;;;;;;22.92;30.36;100641.84;5052856;28;20056;-48
2021/10/04 06:17:28;;;;;;;11.52;5.75;;;;;;;23.10;29.46;100632.47;5051467;28;20048;-46
2021/10/04 06:19:54;;;;;;;16.65;6.18;;;;;;;23.25;29.46;100632.50;5050672;28;20035;-47
2021/10/04 06:22:20;;;;;;;9.52;5.90;;;;;;;23.48;29.02;100638.56;5052146;28;20401;-51
2021/10/04 06:24:45;;;;;;;9.45;5.40;;;;;;;23.67;28.66;100636.97;5052168;28;20059;-51
2021/10/04 06:27:11;;;;;;;10.27;5.68;;;;;;;23.69;28.52;100639.41;5052190;28;20028;-47
2021/10/04 06:29:37;;;;;;;10.82;5.70;;;;;;;23.95;28.45;100641.13;5051722;28;20105;-48
2021/10/04 06:32:06;;;;;;;9.85;5.60;;;;;;;24.30;28.07;100647.63;5052061;28;20036;-50
2021/10/04 06:34:32;;;;;;;7.80;5.13;;;;;;;24.28;27.50;100644.38;5052006;28;20056;-47
2021/10/04 06:36:57;;;;;;;9.63;5.18;;;;;;;24.60;27.11;100646.00;5049985;28;20059;-47
2021/10/04 06:39:23;;;;;;;8.20;4.75;;;;;;;24.85;26.46;100650.56;5051798;28;20036;-48
2021/10/04 06:41:48;;;;;;;11.00;5.10;;;;;;;25.18;26.17;100646.31;5051760;28;20029;-47
2021/10/04 06:44:14;;;;;;;10.05;5.20;;;;;;;24.85;26.62;100647.03;5052277;28;20464;-49
2021/10/04 06:46:39;;;;;;;10.65;4.97;;;;;;;25.29;26.07;100658.03;5051496;28;20025;-50
2021/10/04 06:49:05;;;;;;;9.85;5.30;;;;;;;25.52;25.54;100659.25;5051159;28;20029;-49
2021/10/04 06:51:30;;;;;;;10.07;5.22;;;;;;;25.88;25.36;100669.94;5051241;28;20025;-48
2021/10/04 06:53:55;;;;;;;26.08;17.80;;;;;;;25.70;25.74;100654.25;5051295;28;20468;-50
2021/10/04 06:56:21;;;;;;;11.02;5.88;;;;;;;25.96;25.01;100663.09;5051401;28;20028;-49
2021/10/04 06:58:46;;;;;;;9.10;4.65;;;;;;;26.05;24.88;100669.59;5051650;28;20036;-48
2021/10/04 07:01:12;;;;;;;9.70;5.30;;;;;;;26.28;24.82;100676.22;5051484;28;20199;-50
2021/10/04 07:03:37;;;;;;;8.05;5.45;;;;;;;25.61;25.27;100661.38;5051385;28;20029;-51
2021/10/04 07:06:03;;;;;;;9.98;5.05;;;;;;;26.07;24.60;100664.66;5064744;28;20046;-46
2021/10/04 07:08:28;;;;;;;15.00;5.72;;;;;;;25.79;24.86;100659.94;5071116;28;20028;-46
2021/10/04 07:10:54;;;;;;;11.07;5.45;;;;;;;26.10;24.37;100664.09;5071417;28;20024;-49
2021/10/04 07:13:19;;;;;;;8.82;5.20;;;;;;;26.56;23.96;100659.31;5070896;28;20036;-50
2021/10/04 07:15:45;;;;;;;8.13;5.13;;;;;;;26.39;24.35;100663.31;5071193;28;20428;-47
2021/10/04 07:18:10;;;;;;;10.48;6.03;;;;;;;26.24;24.67;100660.72;5071034;28;20496;-49
2021/10/04 07:20:36;;;;;;;9.07;5.25;;;;;;;26.24;24.66;100655.25;5070298;28;20422;-50
2021/10/04 07:23:03;;;;;;;7.60;4.90;;;;;;;26.62;24.15;100658.19;5070799;28;20021;-47
2021/10/04 07:25:29;;;;;;;9.27;5.28;;;;;;;27.16;23.68;100665.22;5070576;28;20502;-48
2021/10/04 07:27:54;;;;;;;9.60;5.43;;;;;;;27.32;23.20;100659.56;5070483;28;20024;-48
2021/10/04 07:30:20;;;;;;;10.07;5.63;;;;;;;27.20;23.12;100665.44;5070062;28;20116;-49
2021/10/04 07:32:46;;;;;;;10.38;5.20;;;;;;;26.61;24.13;100662.81;5070583;28;20066;-48
2021/10/04 07:35:12;;;;;;;9.98;5.07;;;;;;;25.99;25.09;100654.38;5070460;28;20031;-48
2021/10/04 07:37:38;;;;;;;7.82;4.72;;;;;;;26.27;24.87;100660.13;5050732;28;20052;-50
2021/10/04 07:40:03;;;;;;;12.85;4.85;;;;;;;26.65;24.06;100661.13;5050556;28;20067;-50
2021/10/04 07:42:29;;;;;;;7.50;4.60;;;;;;;26.94;23.92;100656.75;5049932;28;20098;-47
2021/10/04 07:44:54;;;;;;;9.07;4.70;;;;;;;27.21;23.68;100656.97;5050542;28;20025;-46
2021/10/04 07:47:20;;;;;;;9.40;4.85;;;;;;;27.50;23.31;100645.13;5050490;28;20071;-47
2021/10/04 07:49:45;;;;;;;8.90;4.65;;;;;;;27.27;23.39;100649.53;5049733;28;20048;-47
2021/10/04 07:52:11;;;;;;;9.73;4.72;;;;;;;27.47;23.05;100643.81;5050280;28;20032;-50
2021/10/04 07:54:36;;;;;;;8.60;4.90;;;;;;;27.80;22.94;100638.38;5050218;28;20021;-47
2021/10/04 07:57:02;;;;;;;9.80;4.70;;;;;;;28.24;22.25;100636.34;5050193;28;20120;-49
2021/10/04 07:59:27;;;;;;;9.80;4.20;;;;;;;28.32;22.29;100632.91;5050417;28;20024;-48
2021/10/04 08:01:53;;;;;;;8.63;4.47;;;;;;;28.34;21.95;100635.34;5050159;28;20087;-50
2021/10/04 08:04:18;;;;;;;10.15;4.63;;;;;;;28.19;22.46;100639.97;5049864;28;20055;-48
2021/10/04 08:06:44;;;;;;;7.88;3.95;;;;;;;28.23;22.79;100635.50;5050423;28;20416;-50
2021/10/04 08:09:09;;;;;;;8.57;4.10;;;;;;;28.33;22.30;100614.53;5050194;28;20358;-47
2021/10/04 08:11:35;;;;;;;9.70;4.40;;;;;;;28.41;22.55;100630.28;5050590;28;20174;-47
2021/10/04 08:14:00;;;;;;;6.10;4.30;;;;;;;28.53;22.36;100629.81;5050060;28;20021;-47
2021/10/04 08:16:26;;;;;;;7.45;4.72;;;;;;;28.22;22.69;100633.09;5050379;28;20594;-49
2021/10/04 08:18:51;;;;;;;7.38;4.30;;;;;;;27.99;23.02;100624.72;5050000;28;20021;-48
2021/10/04 08:21:18;;;;;;;10.07;4.55;;;;;;;28.16;22.95;100628.81;5048362;28;20033;-50
2021/10/04 08:23:44;;;;;;;8.02;4.63;;;;;;;27.74;23.60;100627.81;5050153;28;20029;-50
2021/10/04 08:26:09;;;;;;;11.73;4.43;;;;;;;27.94;23.10;100622.06;5049854;28;20393;-50
2021/10/04 08:28:35;;;;;;;8.65;4.78;;;;;;;28.11;23.28;100616.03;5049634;28;20025;-47
2021/10/04 08:31:00;;;;;;;11.77;4.72;;;;;;;28.03;23.22;100625.75;5049504;28;20072;-48
2021/10/04 08:33:26;;;;;;;7.93;4.70;;;;;;;26.94;24.15;100622.06;5049335;28;20021;-50
2021/10/04 08:35:51;;;;;;;10.07;4.93;;;;;;;25.32;26.85;100616.63;5048976;28;20020;-48
2021/10/04 08:38:17;;;;;;;10.68;5.00;;;;;;;25.72;26.77;100614.72;5049086;28;20021;-50
2021/10/04 08:40:42;;;;;;;9.07;4.40;;;;;;;25.71;26.63;100609.56;5049131;28;20090;-47
2021/10/04 08:43:07;;;;;;;10.77;4.60;;;;;;;26.50;25.11;100612.16;5049525;28;20032;-48
2021/10/04 08:45:33;;;;;;;7.07;4.50;;;;;;;26.46;24.85;100605.66;5049315;28;20044;-47
2021/10/04 08:47:59;;;;;;;8.70;4.68;;;;;;;26.69;24.67;100604.06;5049066;28;20052;-49
2021/10/04 08:50:30;;;;;;;7.43;4.10;;;;;;;27.35;24.39;100599.69;5049091;28;20489;-47
2021/10/04 08:52:59;;;;;;;10.05;4.32;;;;;;;27.48;23.77;100595.41;5050168;28;20461;-49
2021/10/04 08:55:25;;;;;;;8.65;4.28;;;;;;;27.98;23.59;100592.19;5053524;28;20451;-48
2021/10/04 08:57:50;;;;;;;8.65;4.20;;;;;;;27.64;23.76;100585.84;5053802;28;20116;-46
2021/10/04 09:00:16;;;;;;;8.82;4.25;;;;;;;27.72;23.78;100580.81;5053683;28;20029;-50
2021/10/04 09:02:41;;;;;;;8.82;4.18;;;;;;;27.54;23.98;100586.03;5053479;28;20163;-50
2021/10/04 09:05:23;;;;;;;8.88;4.25;;;;;;;27.81;23.51;100579.84;5052034;28;20385;-46
2021/10/04 09:08:02;;;;;;;8.32;4.18;;;;;;;27.79;23.35;100578.53;5052740;28;20063;-46
2021/10/04 09:10:32;;;;;;;10.83;4.10;;;;;;;26.27;25.00;100575.56;5050893;28;20108;-49
2021/10/04 09:13:05;;;;;;;7.15;4.15;;;;;;;25.42;25.88;100571.31;5052799;28;20424;-47
2021/10/04 09:15:37;;;;;;;7.05;3.90;;;;;;;26.60;24.96;100560.22;5051569;28;20075;-49
2021/10/04 09:18:20;;;;;;;10.27;4.32;;;;;;;27.09;24.28;100560.97;5052880;28;20096;-47
2021/10/04 09:20:53;;;;;;;12.57;4.40;;;;;;;26.04;24.74;100558.88;5050073;28;20016;-50
2021/10/04 09:23:47;;;;;;;8.82;4.20;;;;;;;25.33;26.24;100555.59;5051609;28;20381;-48
2021/10/04 09:26:25;;;;;;;9.02;4.05;;;;;;;25.49;26.58;100550.03;5053325;28;20031;-48
2021/10/04 09:28:58;;;;;;;10.50;4.60;;;;;;;26.42;25.60;100558.22;5053366;28;20137;-48
2021/10/04 09:31:25;;;;;;;6.40;4.03;;;;;;;26.22;25.48;100548.34;5052879;28;20094;-50
2021/10/04 09:34:01;;;;;;;9.82;3.92;;;;;;;25.98;25.63;100543.66;5051486;28;20032;-48
2021/10/04 09:36:31;;;;;;;11.05;6.80;;;;;;;25.83;25.72;100536.41;5051331;28;20497;-47
2021/10/04 09:39:15;;;;;;;10.40;7.15;;;;;;;26.17;25.57;100543.75;5055453;28;20083;-48
2021/10/04 09:42:10;;;;;;;6.20;4.10;;;;;;;26.41;24.75;100548.41;5059921;28;20028;-50
2021/10/04 09:44:57;;;;;;;6.80;4.22;;;;;;;26.33;24.53;100538.94;5060154;28;20100;-49
2021/10/04 09:47:33;;;;;;;6.38;4.35;;;;;;;25.24;25.74;100532.75;5062943;28;20021;-49
2021/10/04 09:50:08;;;;;;;6.53;3.88;;;;;;;25.43;25.71;100524.72;5057551;28;20441;-51
2021/10/04 09:52:33;;;;;;;6.72;4.00;;;;;;;25.96;25.49;100524.03;5053971;28;20041;-46
2021/10/04 09:54:59;;;;;;;9.13;4.10;;;;;;;25.97;25.33;100520.22;5052636;28;20040;-49
2021/10/04 09:57:24;;;;;;;9.07;4.47;;;;;;;26.44;24.74;100509.63;5052600;28;20330;-50
2021/10/04 09:59:50;;;;;;;9.68;4.00;;;;;;;26.96;24.19;100510.63;5052451;28;20036;-46
2021/10/04 10:02:16;;;;;;;8.52;4.40;;;;;;;26.55;24.78;100508.41;5052132;28;20095;-49
2021/10/04 10:04:44;;;;;;;6.47;4.10;;;;;;;26.79;24.37;100499.38;5050877;28;20036;-46
2021/10/04 10:07:09;;;;;;;5.75;3.90;;;;;;;27.35;23.99;100506.00;5051652;28;20028;-45
2021/10/04 10:09:39;;;;;;;7.60;4.20;;;;;;;27.36;23.43;100508.44;5052428;28;20036;-47
2021/10/04 10:12:04;;;;;;;;;;;;;;;27.87;23.38;100502.09;5052877;28;20044;-47
2021/10/04 10:14:40;;;;;;;9.18;3.83;;;;;;;27.88;22.27;100494.69;5051108;28;20080;-48
2021/10/04 10:17:08;;;;;;;7.05;4.30;;;;;;;27.30;22.88;100488.56;5049090;28;20061;-47
2021/10/04 10:19:36;;;;;;;4.70;3.33;;;;;;;24.68;25.58;100484.06;5049787;28;20025;-48
2021/10/04 10:22:20;;;;;;;9.38;3.70;;;;;;;24.26;25.84;100486.09;5032317;28;20101;-47
2021/10/04 10:24:45;;;;;;;8.13;3.80;;;;;;;24.64;26.22;100483.81;5048828;28;20028;-49
2021/10/04 10:27:11;;;;;;;10.90;7.38;;;;;;;25.70;25.55;100475.22;5048873;28;20025;-49
2021/10/04 10:29:37;;;;;;;8.82;4.03;;;;;;;26.44;24.60;100476.88;5049958;28;20045;-47
2021/10/04 10:32:13;;;;;;;7.35;3.72;;;;;;;27.25;23.79;100468.72;5050100;28;20378;-50
2021/10/04 10:34:39;;;;;;;7.25;3.83;;;;;;;26.52;24.22;100470.75;5048130;28;20108;-48
2021/10/04 10:37:23;;;;;;;7.82;4.20;;;;;;;27.14;23.79;100459.81;5050154;28;20500;-47
2021/10/04 10:39:53;;;;;;;7.18;3.92;;;;;;;27.31;23.31;100453.84;5051210;28;20548;-48
2021/10/04 10:42:32;;;;;;;10.55;4.07;;;;;;;27.80;22.73;100451.66;5051651;28;20506;-46
2021/10/04 10:44:57;;;;;;;8.93;4.90;;;;;;;27.26;23.94;100449.31;5051658;28;20111;-46
2021/10/04 10:47:37;;;;;;;6.72;3.83;;;;;;;26.34;24.06;100447.81;5051895;28;20111;-47
2021/10/04 10:50:10;;;;;;;7.65;4.03;;;;;;;26.48;24.19;100443.28;5051554;28;20031;-48
2021/10/04 10:52:39;;;;;;;7.07;4.10;;;;;;;25.98;25.08;100437.31;5050497;28;20025;-47
2021/10/04 10:55:20;;;;;;;6.25;3.80;;;;;;;26.21;24.29;100434.88;5051444;28;20021;-47
2021/10/04 10:57:48;;;;;;;9.60;3.88;;;;;;;26.84;24.01;100431.06;5051439;28;20136;-47
2021/10/04 11:00:21;;;;;;;8.48;3.80;;;;;;;26.90;23.98;100432.59;5050378;28;20037;-48
2021/10/04 11:02:57;;;;;;;11.50;4.18;;;;;;;27.12;24.04;100426.53;5051859;28;20130;-49
2021/10/04 11:05:31;;;;;;;15.23;4.07;;;;;;;27.03;24.08;100431.06;5051575;28;20032;-48
2021/10/04 11:07:57;;;;;;;7.30;3.88;;;;;;;26.70;24.63;100420.09;5051086;28;20025;-50
2021/10/04 11:10:22;;;;;;;8.85;3.63;;;;;;;25.92;25.55;100422.94;5052126;28;20036;-48
2021/10/04 11:13:09;;;;;;;7.68;3.80;;;;;;;26.41;25.24;100412.81;5051320;28;20020;-48
2021/10/04 11:15:39;;;;;;;9.52;4.30;;;;;;;26.34;25.30;100415.06;5051017;28;20047;-49
2021/10/04 11:18:05;;;;;;;5.75;4.20;;;;;;;25.90;25.94;100414.19;5051397;28;20033;-47